createdAt,value
2022-08-01T00:00:05.780Z,52.80
2022-08-01T00:02:32.736Z,53.30
2022-08-01T00:05:01.094Z,53.30
2022-08-01T00:07:27.848Z,53.70
2022-08-01T00:09:54.697Z,53.50
2022-08-01T00:12:21.429Z,53.60
2022-08-01T00:14:48.178Z,53.80
2022-08-01T00:17:14.933Z,54.00
2022-08-01T00:19:41.975Z,54.10
2022-08-01T00:22:09.034Z,54.30
2022-08-01T00:24:35.977Z,54.60
2022-08-01T00:27:02.770Z,54.60
2022-08-01T00:30:12.432Z,55.10
2022-08-01T00:32:16.922Z,55.20
2022-08-01T00:34:43.697Z,55.30
2022-08-01T00:37:10.641Z,55.60
2022-08-01T00:39:42.819Z,55.70
2022-08-01T00:42:11.821Z,55.80
2022-08-01T00:44:38.987Z,56.30
2022-08-01T00:47:06.492Z,56.30
2022-08-01T00:49:33.592Z,56.70
2022-08-01T00:52:00.619Z,56.60
2022-08-01T00:54:28.243Z,57.00
2022-08-01T00:56:55.539Z,57.10
2022-08-01T00:59:23.595Z,56.90
2022-08-01T01:01:52.866Z,57.20
2022-08-01T01:04:20.828Z,57.20
2022-08-01T01:07:08.682Z,57.30
2022-08-01T01:09:58.747Z,57.50
2022-08-01T01:12:29.809Z,57.80
2022-08-01T01:15:11.214Z,58.00
2022-08-01T01:17:56.749Z,58.10
2022-08-01T01:20:28.385Z,58.60
2022-08-01T01:23:11.594Z,58.60
2022-08-01T01:25:38.257Z,58.90
2022-08-01T01:28:22.886Z,58.90
2022-08-01T01:30:52.452Z,58.70
2022-08-01T01:33:20.742Z,59.40
2022-08-01T01:35:51.166Z,59.90
2022-08-01T01:38:30.432Z,59.90
2022-08-01T01:40:58.401Z,60.50
2022-08-01T01:43:29.061Z,60.50
2022-08-01T01:46:01.414Z,60.50
2022-08-01T01:48:29.011Z,60.40
2022-08-01T01:50:57.637Z,60.50
2022-08-01T01:53:25.213Z,61.00
2022-08-01T01:55:53.839Z,61.60
2022-08-01T01:58:22.112Z,61.90
2022-08-01T02:00:50.477Z,62.20
2022-08-01T02:03:19.264Z,62.70
2022-08-01T02:05:46.439Z,62.40
2022-08-01T02:08:15.954Z,63.20
2022-08-01T02:11:03.330Z,63.10
2022-08-01T02:13:32.993Z,63.20
2022-08-01T02:16:00.719Z,63.30
2022-08-01T02:18:27.678Z,63.20
2022-08-01T02:20:55.814Z,63.90
2022-08-01T02:23:24.584Z,63.60
2022-08-01T02:26:10.663Z,63.60
2022-08-01T02:28:44.809Z,63.40
2022-08-01T02:31:17.571Z,64.00
2022-08-01T02:33:47.226Z,64.00
2022-08-01T02:36:31.797Z,63.60
2022-08-01T02:39:03.350Z,63.40
2022-08-01T02:41:32.563Z,63.70
2022-08-01T02:44:04.559Z,63.70
2022-08-01T02:46:36.288Z,63.50
2022-08-01T02:49:04.428Z,63.50
2022-08-01T02:51:32.402Z,63.50
2022-08-01T02:54:00.173Z,64.10
2022-08-01T02:56:35.666Z,63.90
2022-08-01T02:59:05.654Z,63.60
2022-08-01T03:01:33.946Z,63.80
2022-08-01T03:04:05.788Z,63.80
2022-08-01T03:06:33.605Z,63.80
2022-08-01T03:09:03.668Z,64.00
2022-08-01T03:11:31.040Z,64.00
2022-08-01T03:14:03.061Z,64.10
2022-08-01T03:16:32.423Z,63.90
2022-08-01T03:19:00.443Z,63.90
2022-08-01T03:21:28.537Z,63.90
2022-08-01T03:23:58.083Z,64.00
2022-08-01T03:26:29.609Z,63.90
2022-08-01T03:29:17.861Z,64.00
2022-08-01T03:31:46.626Z,64.30
2022-08-01T03:34:13.651Z,64.10
2022-08-01T03:36:50.979Z,64.20
2022-08-01T03:39:19.034Z,64.60
2022-08-01T03:41:56.575Z,64.30
2022-08-01T03:44:26.979Z,64.60
2022-08-01T03:46:59.980Z,64.50
2022-08-01T03:49:48.151Z,64.70
2022-08-01T03:52:15.283Z,65.40
2022-08-01T03:54:46.987Z,64.80
2022-08-01T03:57:35.162Z,66.00
2022-08-01T04:00:02.017Z,65.30
2022-08-01T04:02:29.261Z,65.20
2022-08-01T04:04:56.518Z,65.40
2022-08-01T04:07:29.631Z,65.40
2022-08-01T04:09:56.660Z,65.60
2022-08-01T04:12:23.722Z,65.40
2022-08-01T04:14:50.602Z,65.50
2022-08-01T04:17:18.009Z,65.60
2022-08-01T04:19:45.738Z,65.70
2022-08-01T04:22:16.580Z,65.70
2022-08-01T04:24:54.463Z,65.90
2022-08-01T04:27:50.884Z,65.90
2022-08-01T04:30:20.819Z,66.00
2022-08-01T04:32:48.877Z,66.10
2022-08-01T04:35:23.403Z,66.10
2022-08-01T04:38:06.789Z,66.20
2022-08-01T04:40:33.612Z,66.00
2022-08-01T04:43:01.268Z,66.10
2022-08-01T04:45:28.435Z,66.20
2022-08-01T04:47:55.697Z,66.30
2022-08-01T04:50:22.855Z,66.60
2022-08-01T04:52:49.795Z,66.30
2022-08-01T04:55:18.103Z,66.30
2022-08-01T04:57:46.282Z,66.40
2022-08-01T05:00:13.731Z,66.40
2022-08-01T05:02:40.601Z,66.70
2022-08-01T05:05:07.739Z,66.40
2022-08-01T05:07:45.184Z,66.60
2022-08-01T05:10:12.636Z,67.20
2022-08-01T05:12:39.651Z,66.50
2022-08-01T05:15:11.714Z,66.60
2022-08-01T05:17:43.290Z,66.40
2022-08-01T05:20:11.261Z,66.10
2022-08-01T05:22:38.451Z,66.30
2022-08-01T05:25:05.959Z,66.30
2022-08-01T05:27:33.534Z,66.10
2022-08-01T05:30:00.627Z,66.20
2022-08-01T05:32:28.205Z,66.30
2022-08-01T05:34:54.908Z,66.60
2022-08-01T05:37:21.713Z,66.70
2022-08-01T05:39:48.462Z,67.70
2022-08-01T05:42:15.226Z,66.80
2022-08-01T05:44:42.100Z,67.00
2022-08-01T05:47:08.838Z,66.90
2022-08-01T05:49:35.566Z,67.10
2022-08-01T05:52:03.221Z,66.70
2022-08-01T05:54:30.471Z,66.90
2022-08-01T05:57:00.719Z,66.90
2022-08-01T05:59:27.484Z,66.80
2022-08-01T06:01:54.415Z,66.70
2022-08-01T06:04:21.219Z,66.20
2022-08-01T06:06:48.152Z,66.20
2022-08-01T06:09:14.875Z,66.30
2022-08-01T06:11:41.799Z,66.60
2022-08-01T06:14:08.525Z,66.80
2022-08-01T06:16:35.308Z,66.60
2022-08-01T06:19:02.072Z,66.60
2022-08-01T06:21:28.761Z,66.90
2022-08-01T06:23:55.489Z,67.20
2022-08-01T06:26:22.268Z,67.30
2022-08-01T06:28:49.035Z,67.60
2022-08-01T06:31:16.593Z,67.80
2022-08-01T06:33:43.275Z,67.80
2022-08-01T06:36:10.393Z,68.00
2022-08-01T06:38:37.234Z,67.70
2022-08-01T06:41:04.396Z,67.70
2022-08-01T06:43:31.615Z,67.70
2022-08-01T06:45:58.323Z,67.60
2022-08-01T06:48:25.083Z,67.60
2022-08-01T06:51:08.702Z,67.70
2022-08-01T06:53:39.308Z,67.60
2022-08-01T06:56:07.124Z,67.50
2022-08-01T06:58:35.759Z,67.20
2022-08-01T07:01:09.754Z,67.10
2022-08-01T07:03:54.478Z,67.10
2022-08-01T07:06:25.768Z,66.90
2022-08-01T07:08:53.696Z,66.50
2022-08-01T07:11:21.352Z,66.10
2022-08-01T07:13:48.173Z,65.80
2022-08-01T07:16:15.418Z,65.70
2022-08-01T07:18:42.438Z,65.60
2022-08-01T07:21:16.388Z,65.60
2022-08-01T07:23:47.910Z,65.70
2022-08-01T07:26:14.655Z,65.70
2022-08-01T07:28:44.043Z,65.70
2022-08-01T07:31:10.948Z,65.50
2022-08-01T07:33:48.407Z,65.50
2022-08-01T07:36:17.052Z,65.30
2022-08-01T07:38:44.152Z,65.10
2022-08-01T07:41:11.090Z,65.20
2022-08-01T07:43:37.969Z,65.30
2022-08-01T07:46:05.184Z,65.20
2022-08-01T07:48:32.503Z,65.00
2022-08-01T07:50:59.180Z,64.70
2022-08-01T07:53:26.002Z,64.70
2022-08-01T07:55:52.786Z,64.30
2022-08-01T07:58:19.544Z,64.10
2022-08-01T08:00:46.248Z,63.50
2022-08-01T08:03:13.045Z,63.10
2022-08-01T08:05:59.030Z,62.90
2022-08-01T08:08:26.600Z,63.10
2022-08-01T08:10:53.356Z,64.00
2022-08-01T08:13:20.159Z,63.50
2022-08-01T08:15:48.461Z,63.60
2022-08-01T08:18:15.951Z,63.80
2022-08-01T08:20:42.711Z,64.10
2022-08-01T08:23:42.721Z,64.00
2022-08-01T08:26:11.688Z,64.00
2022-08-01T08:28:38.541Z,63.10
2022-08-01T08:31:07.554Z,62.50
2022-08-01T08:33:54.401Z,62.00
2022-08-01T08:36:21.538Z,62.30
2022-08-01T08:38:48.311Z,62.20
2022-08-01T08:41:20.714Z,61.70
2022-08-01T08:43:48.412Z,61.50
2022-08-01T08:46:16.083Z,61.30
2022-08-01T08:48:43.267Z,61.70
2022-08-01T08:51:12.338Z,61.70
2022-08-01T08:53:44.845Z,61.00
2022-08-01T08:56:14.193Z,61.70
2022-08-01T08:58:42.860Z,62.40
2022-08-01T09:01:09.859Z,62.20
2022-08-01T09:03:37.030Z,62.20
2022-08-01T09:06:04.311Z,62.20
2022-08-01T09:08:31.154Z,62.30
2022-08-01T09:10:57.922Z,62.30
2022-08-01T09:13:24.937Z,61.60
2022-08-01T09:15:56.523Z,61.00
2022-08-01T09:18:41.495Z,61.40
2022-08-01T09:21:17.286Z,61.90
2022-08-01T09:23:53.405Z,61.50
2022-08-01T09:26:36.743Z,61.50
2022-08-01T09:29:05.912Z,63.00
2022-08-01T09:31:42.789Z,62.70
2022-08-01T09:34:15.639Z,62.70
2022-08-01T09:36:49.353Z,63.20
2022-08-01T09:39:16.549Z,63.10
2022-08-01T09:41:43.257Z,62.70
2022-08-01T09:44:10.010Z,62.70
2022-08-01T09:46:37.584Z,62.70
2022-08-01T09:49:07.390Z,61.60
2022-08-01T09:52:00.373Z,60.70
2022-08-01T09:54:32.372Z,59.50
2022-08-01T09:57:17.642Z,60.00
2022-08-01T09:59:58.336Z,60.90
2022-08-01T10:02:37.169Z,60.20
2022-08-01T10:05:09.335Z,59.10
2022-08-01T10:07:58.046Z,58.10
2022-08-01T10:10:29.120Z,58.10
2022-08-01T10:12:59.728Z,57.80
2022-08-01T10:15:37.091Z,57.60
2022-08-01T10:18:16.231Z,57.30
2022-08-01T10:20:48.351Z,57.30
2022-08-01T10:23:15.819Z,57.10
2022-08-01T10:25:47.192Z,56.60
2022-08-01T10:28:21.499Z,56.30
2022-08-01T10:30:53.212Z,56.80
2022-08-01T10:33:51.547Z,57.40
2022-08-01T10:36:11.094Z,57.40
2022-08-01T10:38:38.331Z,56.90
2022-08-01T10:41:08.943Z,56.40
2022-08-01T10:43:36.641Z,56.60
2022-08-01T10:46:04.849Z,57.30
2022-08-01T10:48:49.971Z,58.00
2022-08-01T10:51:21.316Z,57.70
2022-08-01T10:53:58.381Z,58.00
2022-08-01T10:56:46.407Z,58.30
2022-08-01T10:59:49.391Z,58.20
2022-08-01T11:02:08.844Z,57.40
2022-08-01T11:04:35.749Z,55.60
2022-08-01T11:07:07.515Z,55.70
2022-08-01T11:09:42.763Z,55.00
2022-08-01T11:12:13.330Z,54.70
2022-08-01T11:14:59.424Z,54.40
2022-08-01T11:17:42.170Z,53.80
2022-08-01T11:20:17.444Z,54.20
2022-08-01T11:23:03.449Z,54.60
2022-08-01T11:26:03.587Z,55.50
2022-08-01T11:28:35.745Z,55.90
2022-08-01T11:31:10.936Z,56.10
2022-08-01T11:33:46.926Z,55.90
2022-08-01T11:36:14.300Z,54.80
2022-08-01T11:38:42.511Z,54.40
2022-08-01T11:41:15.079Z,53.90
2022-08-01T11:44:00.722Z,54.40
2022-08-01T11:46:51.027Z,55.00
2022-08-01T11:49:48.913Z,55.40
2022-08-01T11:52:25.171Z,55.50
2022-08-01T11:55:10.266Z,55.80
2022-08-01T11:57:39.205Z,55.20
2022-08-01T12:00:19.683Z,55.10
2022-08-01T12:02:48.028Z,54.20
2022-08-01T12:05:18.990Z,54.10
2022-08-01T12:07:47.293Z,54.30
2022-08-01T12:10:16.871Z,54.40
2022-08-01T12:12:51.725Z,54.20
2022-08-01T12:15:24.018Z,53.80
2022-08-01T12:17:58.669Z,54.00
2022-08-01T12:20:30.339Z,53.90
2022-08-01T12:22:59.396Z,53.40
2022-08-01T12:25:26.350Z,53.10
2022-08-01T12:27:56.472Z,52.80
2022-08-01T12:30:25.243Z,53.30
2022-08-01T12:32:53.629Z,53.40
2022-08-01T12:35:25.611Z,54.00
2022-08-01T12:38:09.027Z,53.60
2022-08-01T12:40:45.054Z,53.60
2022-08-01T12:43:27.051Z,53.80
2022-08-01T12:45:57.167Z,53.80
2022-08-01T12:48:25.195Z,53.50
2022-08-01T12:50:53.458Z,53.10
2022-08-01T12:53:21.539Z,53.30
2022-08-01T12:55:59.521Z,53.60
2022-08-01T12:58:34.079Z,53.20
2022-08-01T13:01:07.277Z,52.60
2022-08-01T13:03:34.174Z,52.70
2022-08-01T13:06:01.365Z,52.40
2022-08-01T13:08:32.958Z,52.30
2022-08-01T13:11:10.585Z,52.50
2022-08-01T13:13:48.819Z,52.40
2022-08-01T13:16:34.290Z,52.70
2022-08-01T13:19:06.300Z,52.90
2022-08-01T13:21:52.286Z,53.00
2022-08-01T13:24:27.989Z,52.70
2022-08-01T13:26:59.496Z,51.90
2022-08-01T13:29:42.261Z,51.70
2022-08-01T13:32:29.487Z,51.00
2022-08-01T13:35:06.053Z,51.30
2022-08-01T13:37:33.025Z,51.70
2022-08-01T13:40:00.017Z,52.10
2022-08-01T13:42:26.718Z,52.10
2022-08-01T13:44:53.733Z,52.40
2022-08-01T13:47:26.049Z,52.40
2022-08-01T13:50:01.859Z,52.50
2022-08-01T13:52:29.072Z,52.20
2022-08-01T13:54:55.919Z,52.20
2022-08-01T13:57:22.779Z,52.40
2022-08-01T13:59:49.780Z,52.80
2022-08-01T14:02:16.520Z,52.90
2022-08-01T14:04:43.421Z,52.80
2022-08-01T14:07:14.807Z,53.10
2022-08-01T14:09:57.899Z,52.60
2022-08-01T14:12:29.734Z,52.10
2022-08-01T14:14:57.244Z,51.80
2022-08-01T14:17:24.042Z,51.80
2022-08-01T14:19:50.903Z,51.90
2022-08-01T14:22:17.653Z,51.80
2022-08-01T14:24:44.390Z,51.90
2022-08-01T14:27:11.310Z,51.40
2022-08-01T14:29:54.818Z,51.60
2022-08-01T14:32:28.639Z,51.40
2022-08-01T14:34:57.039Z,51.40
2022-08-01T14:37:28.588Z,51.10
2022-08-01T14:39:57.803Z,51.20
2022-08-01T14:42:26.176Z,51.00
2022-08-01T14:44:53.034Z,50.80
2022-08-01T14:47:21.854Z,51.10
2022-08-01T14:49:49.410Z,51.70
2022-08-01T14:52:16.263Z,51.50
2022-08-01T14:54:43.042Z,51.70
2022-08-01T14:57:11.076Z,52.00
2022-08-01T14:59:37.982Z,52.30
2022-08-01T15:02:05.286Z,52.20
2022-08-01T15:04:32.264Z,51.90
2022-08-01T15:06:59.063Z,51.70
2022-08-01T15:09:25.763Z,51.40
2022-08-01T15:11:52.486Z,51.00
2022-08-01T15:14:37.857Z,50.60
2022-08-01T15:17:04.646Z,50.70
2022-08-01T15:19:31.470Z,51.00
2022-08-01T15:21:58.224Z,51.20
2022-08-01T15:24:28.274Z,51.30
2022-08-01T15:26:55.038Z,51.30
2022-08-01T15:29:21.734Z,51.50
2022-08-01T15:31:48.418Z,51.90
2022-08-01T15:34:15.176Z,51.90
2022-08-01T15:36:43.696Z,52.00
2022-08-01T15:39:13.855Z,52.20
2022-08-01T15:41:40.593Z,52.20
2022-08-01T15:44:07.628Z,52.30
2022-08-01T15:46:34.559Z,52.50
2022-08-01T15:49:06.110Z,52.70
2022-08-01T15:51:33.621Z,52.70
2022-08-01T15:54:03.836Z,52.50
2022-08-01T15:56:31.059Z,52.80
2022-08-01T15:58:58.230Z,52.30
2022-08-01T16:01:26.940Z,52.10
2022-08-01T16:03:57.824Z,51.60
2022-08-01T16:06:24.823Z,51.70
2022-08-01T16:08:51.794Z,51.80
2022-08-01T16:11:19.275Z,52.10
2022-08-01T16:13:48.621Z,52.40
2022-08-01T16:16:16.948Z,52.50
2022-08-01T16:18:44.237Z,52.60
2022-08-01T16:21:13.779Z,53.20
2022-08-01T16:23:41.591Z,52.70
2022-08-01T16:26:15.581Z,53.00
2022-08-01T16:28:55.063Z,53.20
2022-08-01T16:31:36.795Z,53.20
2022-08-01T16:34:08.485Z,53.30
2022-08-01T16:36:36.329Z,53.40
2022-08-01T16:39:05.337Z,53.30
2022-08-01T16:41:32.087Z,53.30
2022-08-01T16:44:04.507Z,53.50
2022-08-01T16:46:34.256Z,53.60
2022-08-01T16:49:01.090Z,53.70
2022-08-01T16:51:27.960Z,53.80
2022-08-01T16:53:59.168Z,53.90
2022-08-01T16:56:26.042Z,54.00
2022-08-01T16:58:52.836Z,54.10
2022-08-01T17:01:59.738Z,54.40
2022-08-01T17:04:06.655Z,54.60
2022-08-01T17:06:33.389Z,54.90
2022-08-01T17:09:00.250Z,55.20
2022-08-01T17:11:27.079Z,55.60
2022-08-01T17:13:53.789Z,55.90
2022-08-01T17:16:20.533Z,56.30
2022-08-01T17:18:47.313Z,56.50
2022-08-01T17:21:14.467Z,56.70
2022-08-01T17:23:41.253Z,57.00
2022-08-01T17:26:08.130Z,57.10
2022-08-01T17:28:34.942Z,57.40
2022-08-01T17:31:01.679Z,57.40
2022-08-01T17:33:45.803Z,57.50
2022-08-01T17:36:21.188Z,57.70
2022-08-01T17:38:47.909Z,57.80
2022-08-01T17:41:14.783Z,57.70
2022-08-01T17:43:41.490Z,57.90
2022-08-01T17:46:08.387Z,58.00
2022-08-01T17:48:35.115Z,58.20
2022-08-01T17:51:01.869Z,58.30
2022-08-01T17:53:28.751Z,58.30
2022-08-01T17:55:58.452Z,58.30
2022-08-01T17:58:50.295Z,58.30
2022-08-01T18:01:17.314Z,58.40
2022-08-01T18:03:44.606Z,58.40
2022-08-01T18:06:14.214Z,58.40
2022-08-01T18:08:42.887Z,58.50
2022-08-01T18:11:09.978Z,58.50
2022-08-01T18:13:40.780Z,58.60
2022-08-01T18:16:09.090Z,58.70
2022-08-01T18:18:36.718Z,58.80
2022-08-01T18:21:03.955Z,58.80
2022-08-01T18:23:33.556Z,58.80
2022-08-01T18:26:02.186Z,58.80
2022-08-01T18:28:35.141Z,58.80
2022-08-01T18:31:06.061Z,58.80
2022-08-01T18:33:36.302Z,58.90
2022-08-01T18:36:04.434Z,58.90
2022-08-01T18:38:33.199Z,58.90
2022-08-01T18:41:01.328Z,59.00
2022-08-01T18:43:28.556Z,59.20
2022-08-01T18:45:57.462Z,59.20
2022-08-01T18:48:24.603Z,59.30
2022-08-01T18:50:53.931Z,59.40
2022-08-01T18:53:22.464Z,59.50
2022-08-01T18:55:49.538Z,59.60
2022-08-01T18:58:16.257Z,59.60
2022-08-01T19:00:43.120Z,59.70
2022-08-01T19:03:10.015Z,59.70
2022-08-01T19:05:37.170Z,59.70
2022-08-01T19:08:05.893Z,59.70
2022-08-01T19:10:35.326Z,59.70
2022-08-01T19:13:02.952Z,59.90
2022-08-01T19:15:29.849Z,60.00
2022-08-01T19:17:56.621Z,60.30
2022-08-01T19:20:23.486Z,60.50
2022-08-01T19:22:50.414Z,60.60
2022-08-01T19:25:17.235Z,60.70
2022-08-01T19:27:48.111Z,60.90
2022-08-01T19:30:16.018Z,61.00
2022-08-01T19:32:43.997Z,61.20
2022-08-01T19:35:12.926Z,61.40
2022-08-01T19:37:44.171Z,61.60
2022-08-01T19:40:11.682Z,61.60
2022-08-01T19:42:55.414Z,61.60
2022-08-01T19:45:22.631Z,61.60
2022-08-01T19:47:56.578Z,61.90
2022-08-01T19:50:28.558Z,61.90
2022-08-01T19:53:02.419Z,62.00
2022-08-01T19:55:30.803Z,62.40
2022-08-01T19:58:24.615Z,62.30
2022-08-01T20:00:45.625Z,62.60
2022-08-01T20:03:14.404Z,62.70
2022-08-01T20:05:41.367Z,62.70
2022-08-01T20:08:08.698Z,62.90
2022-08-01T20:10:38.082Z,63.00
2022-08-01T20:13:05.503Z,63.10
2022-08-01T20:15:32.443Z,63.00
2022-08-01T20:17:59.583Z,63.00
2022-08-01T20:20:27.193Z,62.90
2022-08-01T20:22:56.674Z,62.80
2022-08-01T20:25:32.075Z,62.80
2022-08-01T20:28:06.191Z,62.80
2022-08-01T20:30:33.130Z,62.60
2022-08-01T20:32:59.907Z,62.60
2022-08-01T20:35:51.469Z,62.70
2022-08-01T20:38:15.884Z,62.60
2022-08-01T20:40:43.787Z,62.60
2022-08-01T20:43:11.724Z,62.70
2022-08-01T20:45:38.495Z,62.60
2022-08-01T20:48:06.523Z,62.50
2022-08-01T20:50:53.942Z,62.50
2022-08-01T20:53:23.743Z,62.50
2022-08-01T20:55:57.908Z,62.40
2022-08-01T20:58:34.294Z,62.60
2022-08-01T21:01:02.000Z,62.50
2022-08-01T21:03:36.566Z,62.60
2022-08-01T21:06:14.067Z,62.70
2022-08-01T21:08:45.683Z,62.80
2022-08-01T21:11:40.146Z,62.90
2022-08-01T21:14:12.979Z,63.00
2022-08-01T21:16:44.623Z,62.90
2022-08-01T21:19:20.117Z,63.20
2022-08-01T21:21:56.315Z,63.40
2022-08-01T21:24:23.814Z,63.80
2022-08-01T21:26:51.754Z,63.90
2022-08-01T21:29:18.883Z,64.10
2022-08-01T21:31:46.646Z,65.10
2022-08-01T21:34:14.482Z,64.90
2022-08-01T21:36:44.145Z,64.80
2022-08-01T21:39:11.023Z,65.30
2022-08-01T21:41:56.449Z,65.20
2022-08-01T21:44:28.826Z,65.30
2022-08-01T21:46:58.926Z,65.30
2022-08-01T21:49:26.024Z,65.50
2022-08-01T21:52:15.158Z,65.40
2022-08-01T21:55:02.325Z,65.70
2022-08-01T21:57:49.277Z,65.40
2022-08-01T22:00:25.429Z,65.60
2022-08-01T22:03:08.895Z,65.70
2022-08-01T22:05:40.529Z,65.10
2022-08-01T22:08:29.618Z,66.50
2022-08-01T22:10:58.902Z,66.30
2022-08-01T22:13:25.736Z,66.40
2022-08-01T22:15:54.944Z,66.80
2022-08-01T22:18:22.339Z,66.60
2022-08-01T22:20:49.464Z,66.60
2022-08-01T22:23:16.892Z,66.70
2022-08-01T22:25:44.734Z,66.80
2022-08-01T22:28:16.060Z,67.20
2022-08-01T22:30:42.979Z,67.00
2022-08-01T22:33:17.208Z,66.90
2022-08-01T22:35:52.488Z,67.10
2022-08-01T22:38:20.828Z,67.40
2022-08-01T22:40:53.957Z,67.40
2022-08-01T22:43:25.323Z,67.70
2022-08-01T22:46:05.594Z,67.50
2022-08-01T22:48:46.546Z,67.50
2022-08-01T22:51:43.875Z,67.50
2022-08-01T22:54:28.094Z,67.80
2022-08-01T22:56:56.235Z,67.80
2022-08-01T22:59:42.450Z,67.90
2022-08-01T23:02:12.883Z,68.00
2022-08-01T23:04:46.925Z,68.10
2022-08-01T23:07:19.722Z,68.20
2022-08-01T23:09:54.497Z,68.40
2022-08-01T23:12:24.347Z,68.50
2022-08-01T23:14:53.921Z,68.70
2022-08-01T23:17:26.633Z,68.90
2022-08-01T23:19:59.533Z,68.80
2022-08-01T23:22:32.065Z,68.60
2022-08-01T23:25:04.525Z,68.80
2022-08-01T23:27:57.858Z,68.70
2022-08-01T23:30:31.148Z,68.80
2022-08-01T23:32:58.182Z,68.70
2022-08-01T23:35:25.698Z,68.70
2022-08-01T23:37:52.810Z,68.70
2022-08-01T23:40:19.854Z,69.00
2022-08-01T23:42:46.585Z,69.00
2022-08-01T23:45:13.658Z,69.20
2022-08-01T23:47:40.628Z,69.30
2022-08-01T23:50:08.346Z,69.40
2022-08-01T23:52:36.824Z,69.50
2022-08-01T23:55:15.766Z,69.60
2022-08-01T23:57:42.966Z,69.80
